sensor_id;sensor_type;location;lat;lon;timestamp;P1;durP1;ratioP1;P2;durP2;ratioP2
59872;SDS011;50750;51.636;4.948;2023-11-21T00:00:34;7.90;;;5.60;;
59872;SDS011;50750;51.636;4.948;2023-11-21T00:03:21;6.40;;;5.50;;
59872;SDS011;50750;51.636;4.948;2023-11-21T00:05:49;7.70;;;5.30;;
59872;SDS011;50750;51.636;4.948;2023-11-21T00:08:16;7.30;;;5.50;;
59872;SDS011;50750;51.636;4.948;2023-11-21T00:10:42;9.00;;;5.70;;
59872;SDS011;50750;51.636;4.948;2023-11-21T00:13:09;7.50;;;5.70;;
59872;SDS011;50750;51.636;4.948;2023-11-21T00:15:38;8.50;;;6.30;;
59872;SDS011;50750;51.636;4.948;2023-11-21T00:18:05;7.80;;;5.50;;
59872;SDS011;50750;51.636;4.948;2023-11-21T00:20:31;8.70;;;5.90;;
59872;SDS011;50750;51.636;4.948;2023-11-21T00:22:58;7.50;;;5.60;;
59872;SDS011;50750;51.636;4.948;2023-11-21T00:25:25;7.60;;;5.80;;
59872;SDS011;50750;51.636;4.948;2023-11-21T00:27:52;7.00;;;5.30;;
59872;SDS011;50750;51.636;4.948;2023-11-21T00:30:18;7.60;;;5.60;;
59872;SDS011;50750;51.636;4.948;2023-11-21T00:32:46;8.60;;;5.30;;
59872;SDS011;50750;51.636;4.948;2023-11-21T00:35:12;7.30;;;5.30;;
59872;SDS011;50750;51.636;4.948;2023-11-21T00:37:39;7.50;;;4.90;;
59872;SDS011;50750;51.636;4.948;2023-11-21T00:40:05;6.60;;;5.00;;
59872;SDS011;50750;51.636;4.948;2023-11-21T00:42:32;6.90;;;5.20;;
59872;SDS011;50750;51.636;4.948;2023-11-21T00:45:19;7.40;;;5.40;;
59872;SDS011;50750;51.636;4.948;2023-11-21T00:47:45;7.00;;;5.30;;
59872;SDS011;50750;51.636;4.948;2023-11-21T00:50:12;7.00;;;5.10;;
59872;SDS011;50750;51.636;4.948;2023-11-21T00:52:38;5.90;;;4.70;;
59872;SDS011;50750;51.636;4.948;2023-11-21T00:55:05;7.10;;;4.80;;
59872;SDS011;50750;51.636;4.948;2023-11-21T00:57:33;7.30;;;5.60;;
59872;SDS011;50750;51.636;4.948;2023-11-21T01:00:00;6.40;;;4.90;;
59872;SDS011;50750;51.636;4.948;2023-11-21T01:02:27;6.70;;;5.10;;
59872;SDS011;50750;51.636;4.948;2023-11-21T01:04:53;6.50;;;4.90;;
59872;SDS011;50750;51.636;4.948;2023-11-21T01:07:20;7.10;;;4.80;;
59872;SDS011;50750;51.636;4.948;2023-11-21T01:09:46;6.60;;;4.80;;
59872;SDS011;50750;51.636;4.948;2023-11-21T01:12:13;6.60;;;4.70;;
59872;SDS011;50750;51.636;4.948;2023-11-21T01:14:39;6.30;;;4.90;;
59872;SDS011;50750;51.636;4.948;2023-11-21T01:17:06;7.40;;;5.10;;
59872;SDS011;50750;51.636;4.948;2023-11-21T01:19:33;7.70;;;4.90;;
59872;SDS011;50750;51.636;4.948;2023-11-21T01:21:59;6.10;;;4.60;;
59872;SDS011;50750;51.636;4.948;2023-11-21T01:24:26;6.90;;;5.00;;
59872;SDS011;50750;51.636;4.948;2023-11-21T01:26:52;7.60;;;4.80;;
59872;SDS011;50750;51.636;4.948;2023-11-21T01:29:18;6.10;;;4.30;;
59872;SDS011;50750;51.636;4.948;2023-11-21T01:31:46;6.50;;;4.50;;
59872;SDS011;50750;51.636;4.948;2023-11-21T01:34:13;8.10;;;5.10;;
59872;SDS011;50750;51.636;4.948;2023-11-21T01:36:40;6.40;;;4.80;;
59872;SDS011;50750;51.636;4.948;2023-11-21T01:39:06;7.30;;;4.80;;
59872;SDS011;50750;51.636;4.948;2023-11-21T01:41:35;5.90;;;4.70;;
59872;SDS011;50750;51.636;4.948;2023-11-21T01:44:01;6.90;;;4.80;;
59872;SDS011;50750;51.636;4.948;2023-11-21T01:46:28;6.90;;;5.10;;
59872;SDS011;50750;51.636;4.948;2023-11-21T01:48:55;6.00;;;4.30;;
59872;SDS011;50750;51.636;4.948;2023-11-21T01:51:21;7.40;;;5.10;;
59872;SDS011;50750;51.636;4.948;2023-11-21T01:53:48;6.50;;;4.90;;
59872;SDS011;50750;51.636;4.948;2023-11-21T01:56:15;7.00;;;4.60;;
59872;SDS011;50750;51.636;4.948;2023-11-21T01:58:42;5.90;;;4.50;;
59872;SDS011;50750;51.636;4.948;2023-11-21T02:01:09;6.80;;;4.40;;
59872;SDS011;50750;51.636;4.948;2023-11-21T02:03:36;5.90;;;4.30;;
59872;SDS011;50750;51.636;4.948;2023-11-21T02:06:02;5.80;;;4.00;;
59872;SDS011;50750;51.636;4.948;2023-11-21T02:08:29;6.00;;;3.90;;
59872;SDS011;50750;51.636;4.948;2023-11-21T02:10:56;5.80;;;4.20;;
59872;SDS011;50750;51.636;4.948;2023-11-21T02:13:23;6.20;;;4.50;;
59872;SDS011;50750;51.636;4.948;2023-11-21T02:15:50;7.30;;;4.60;;
59872;SDS011;50750;51.636;4.948;2023-11-21T02:18:18;5.50;;;4.30;;
59872;SDS011;50750;51.636;4.948;2023-11-21T02:20:45;6.50;;;4.40;;
59872;SDS011;50750;51.636;4.948;2023-11-21T02:23:12;5.90;;;4.00;;
59872;SDS011;50750;51.636;4.948;2023-11-21T02:25:39;5.40;;;3.80;;
59872;SDS011;50750;51.636;4.948;2023-11-21T02:28:05;5.40;;;4.10;;
59872;SDS011;50750;51.636;4.948;2023-11-21T02:30:33;4.70;;;3.70;;
59872;SDS011;50750;51.636;4.948;2023-11-21T02:33:02;4.80;;;3.40;;
59872;SDS011;50750;51.636;4.948;2023-11-21T02:35:29;5.00;;;3.70;;
59872;SDS011;50750;51.636;4.948;2023-11-21T02:37:57;5.20;;;3.80;;
59872;SDS011;50750;51.636;4.948;2023-11-21T02:40:23;5.50;;;4.20;;
59872;SDS011;50750;51.636;4.948;2023-11-21T02:45:20;5.40;;;3.90;;
59872;SDS011;50750;51.636;4.948;2023-11-21T02:47:47;6.60;;;4.30;;
59872;SDS011;50750;51.636;4.948;2023-11-21T02:50:15;5.10;;;3.60;;
59872;SDS011;50750;51.636;4.948;2023-11-21T02:52:41;5.60;;;3.80;;
59872;SDS011;50750;51.636;4.948;2023-11-21T02:55:08;5.00;;;3.90;;
59872;SDS011;50750;51.636;4.948;2023-11-21T02:57:34;5.00;;;3.70;;
59872;SDS011;50750;51.636;4.948;2023-11-21T03:00:01;4.70;;;3.60;;
59872;SDS011;50750;51.636;4.948;2023-11-21T03:02:28;5.60;;;3.70;;
59872;SDS011;50750;51.636;4.948;2023-11-21T03:04:54;5.30;;;3.60;;
59872;SDS011;50750;51.636;4.948;2023-11-21T03:07:21;4.60;;;3.40;;
59872;SDS011;50750;51.636;4.948;2023-11-21T03:09:48;5.30;;;3.40;;
59872;SDS011;50750;51.636;4.948;2023-11-21T03:12:14;4.70;;;3.60;;
59872;SDS011;50750;51.636;4.948;2023-11-21T03:14:41;4.90;;;3.60;;
59872;SDS011;50750;51.636;4.948;2023-11-21T03:17:08;5.00;;;3.60;;
59872;SDS011;50750;51.636;4.948;2023-11-21T03:19:34;4.60;;;3.40;;
59872;SDS011;50750;51.636;4.948;2023-11-21T03:22:01;5.50;;;3.50;;
59872;SDS011;50750;51.636;4.948;2023-11-21T03:24:27;4.90;;;3.80;;
59872;SDS011;50750;51.636;4.948;2023-11-21T03:26:53;4.60;;;3.30;;
59872;SDS011;50750;51.636;4.948;2023-11-21T03:29:20;4.90;;;3.50;;
59872;SDS011;50750;51.636;4.948;2023-11-21T03:31:46;4.70;;;3.30;;
59872;SDS011;50750;51.636;4.948;2023-11-21T03:34:19;4.70;;;3.50;;
59872;SDS011;50750;51.636;4.948;2023-11-21T03:36:49;4.40;;;3.10;;
59872;SDS011;50750;51.636;4.948;2023-11-21T03:39:16;5.00;;;3.50;;
59872;SDS011;50750;51.636;4.948;2023-11-21T03:41:42;5.60;;;3.60;;
59872;SDS011;50750;51.636;4.948;2023-11-21T03:44:09;5.30;;;3.60;;
59872;SDS011;50750;51.636;4.948;2023-11-21T03:46:35;5.60;;;3.80;;
59872;SDS011;50750;51.636;4.948;2023-11-21T03:49:02;4.80;;;3.30;;
59872;SDS011;50750;51.636;4.948;2023-11-21T03:51:28;4.60;;;3.50;;
59872;SDS011;50750;51.636;4.948;2023-11-21T03:53:54;4.90;;;3.60;;
59872;SDS011;50750;51.636;4.948;2023-11-21T03:56:21;4.90;;;3.30;;
59872;SDS011;50750;51.636;4.948;2023-11-21T03:58:50;4.60;;;2.90;;
59872;SDS011;50750;51.636;4.948;2023-11-21T04:01:23;4.90;;;3.20;;
59872;SDS011;50750;51.636;4.948;2023-11-21T04:03:50;4.30;;;3.20;;
59872;SDS011;50750;51.636;4.948;2023-11-21T04:06:17;4.20;;;3.30;;
59872;SDS011;50750;51.636;4.948;2023-11-21T04:08:44;4.00;;;3.10;;
59872;SDS011;50750;51.636;4.948;2023-11-21T04:11:11;4.20;;;3.20;;
59872;SDS011;50750;51.636;4.948;2023-11-21T04:13:39;4.10;;;3.20;;
59872;SDS011;50750;51.636;4.948;2023-11-21T04:16:06;4.00;;;3.20;;
59872;SDS011;50750;51.636;4.948;2023-11-21T04:18:36;4.80;;;2.90;;
59872;SDS011;50750;51.636;4.948;2023-11-21T04:21:04;4.40;;;3.10;;
59872;SDS011;50750;51.636;4.948;2023-11-21T04:23:32;4.70;;;3.20;;
59872;SDS011;50750;51.636;4.948;2023-11-21T04:25:59;4.40;;;3.20;;
59872;SDS011;50750;51.636;4.948;2023-11-21T04:28:26;3.90;;;2.80;;
59872;SDS011;50750;51.636;4.948;2023-11-21T04:30:52;4.60;;;2.90;;
59872;SDS011;50750;51.636;4.948;2023-11-21T04:33:19;4.30;;;2.70;;
59872;SDS011;50750;51.636;4.948;2023-11-21T04:35:45;4.40;;;2.90;;
59872;SDS011;50750;51.636;4.948;2023-11-21T04:38:12;3.60;;;2.90;;
59872;SDS011;50750;51.636;4.948;2023-11-21T04:40:38;4.90;;;2.90;;
59872;SDS011;50750;51.636;4.948;2023-11-21T04:43:05;3.80;;;3.00;;
59872;SDS011;50750;51.636;4.948;2023-11-21T04:45:31;4.30;;;3.10;;
59872;SDS011;50750;51.636;4.948;2023-11-21T04:47:58;4.80;;;2.90;;
59872;SDS011;50750;51.636;4.948;2023-11-21T04:50:25;4.40;;;3.00;;
59872;SDS011;50750;51.636;4.948;2023-11-21T04:52:53;4.50;;;3.20;;
59872;SDS011;50750;51.636;4.948;2023-11-21T04:55:20;4.10;;;2.70;;
59872;SDS011;50750;51.636;4.948;2023-11-21T04:57:46;3.80;;;2.70;;
59872;SDS011;50750;51.636;4.948;2023-11-21T05:00:13;4.40;;;2.80;;
59872;SDS011;50750;51.636;4.948;2023-11-21T05:02:40;3.70;;;2.60;;
59872;SDS011;50750;51.636;4.948;2023-11-21T05:05:07;4.00;;;2.80;;
59872;SDS011;50750;51.636;4.948;2023-11-21T05:07:36;4.30;;;3.00;;
59872;SDS011;50750;51.636;4.948;2023-11-21T05:10:04;4.40;;;3.00;;
59872;SDS011;50750;51.636;4.948;2023-11-21T05:12:37;4.80;;;3.10;;
59872;SDS011;50750;51.636;4.948;2023-11-21T05:15:04;4.30;;;3.00;;
59872;SDS011;50750;51.636;4.948;2023-11-21T05:17:38;3.80;;;2.80;;
59872;SDS011;50750;51.636;4.948;2023-11-21T05:20:09;4.70;;;2.90;;
59872;SDS011;50750;51.636;4.948;2023-11-21T05:22:37;4.00;;;2.50;;
59872;SDS011;50750;51.636;4.948;2023-11-21T05:25:03;4.10;;;2.60;;
59872;SDS011;50750;51.636;4.948;2023-11-21T05:27:31;4.20;;;2.50;;
59872;SDS011;50750;51.636;4.948;2023-11-21T05:29:57;3.70;;;2.50;;
59872;SDS011;50750;51.636;4.948;2023-11-21T05:32:24;4.60;;;3.00;;
59872;SDS011;50750;51.636;4.948;2023-11-21T05:34:51;4.70;;;2.90;;
59872;SDS011;50750;51.636;4.948;2023-11-21T05:37:18;4.90;;;2.70;;
59872;SDS011;50750;51.636;4.948;2023-11-21T05:39:45;4.90;;;2.90;;
59872;SDS011;50750;51.636;4.948;2023-11-21T05:42:11;3.50;;;2.50;;
59872;SDS011;50750;51.636;4.948;2023-11-21T05:44:38;4.90;;;3.00;;
59872;SDS011;50750;51.636;4.948;2023-11-21T05:47:08;4.90;;;2.80;;
59872;SDS011;50750;51.636;4.948;2023-11-21T05:49:34;4.90;;;2.80;;
59872;SDS011;50750;51.636;4.948;2023-11-21T05:52:01;3.30;;;2.20;;
59872;SDS011;50750;51.636;4.948;2023-11-21T05:54:27;4.00;;;2.50;;
59872;SDS011;50750;51.636;4.948;2023-11-21T05:56:54;4.70;;;2.60;;
59872;SDS011;50750;51.636;4.948;2023-11-21T05:59:21;3.90;;;2.80;;
59872;SDS011;50750;51.636;4.948;2023-11-21T06:01:47;3.50;;;2.40;;
59872;SDS011;50750;51.636;4.948;2023-11-21T06:04:14;4.70;;;3.00;;
59872;SDS011;50750;51.636;4.948;2023-11-21T06:06:40;4.00;;;2.80;;
59872;SDS011;50750;51.636;4.948;2023-11-21T06:09:07;4.30;;;2.90;;
59872;SDS011;50750;51.636;4.948;2023-11-21T06:11:35;3.80;;;2.70;;
59872;SDS011;50750;51.636;4.948;2023-11-21T06:14:02;4.20;;;2.50;;
59872;SDS011;50750;51.636;4.948;2023-11-21T06:16:28;4.40;;;2.90;;
59872;SDS011;50750;51.636;4.948;2023-11-21T06:18:55;3.90;;;2.70;;
59872;SDS011;50750;51.636;4.948;2023-11-21T06:21:21;3.10;;;2.30;;
59872;SDS011;50750;51.636;4.948;2023-11-21T06:23:48;4.30;;;2.70;;
59872;SDS011;50750;51.636;4.948;2023-11-21T06:26:14;5.20;;;3.10;;
59872;SDS011;50750;51.636;4.948;2023-11-21T06:28:40;3.60;;;2.30;;
59872;SDS011;50750;51.636;4.948;2023-11-21T06:31:07;4.20;;;2.50;;
59872;SDS011;50750;51.636;4.948;2023-11-21T06:33:34;4.20;;;2.70;;
59872;SDS011;50750;51.636;4.948;2023-11-21T06:36:00;4.00;;;2.70;;
59872;SDS011;50750;51.636;4.948;2023-11-21T06:38:29;3.70;;;2.40;;
59872;SDS011;50750;51.636;4.948;2023-11-21T06:40:56;4.50;;;2.40;;
59872;SDS011;50750;51.636;4.948;2023-11-21T06:43:24;3.90;;;2.70;;
59872;SDS011;50750;51.636;4.948;2023-11-21T06:45:50;3.60;;;2.50;;
59872;SDS011;50750;51.636;4.948;2023-11-21T06:48:17;7.40;;;4.30;;
59872;SDS011;50750;51.636;4.948;2023-11-21T06:50:43;7.70;;;4.50;;
59872;SDS011;50750;51.636;4.948;2023-11-21T06:53:10;7.70;;;4.50;;
59872;SDS011;50750;51.636;4.948;2023-11-21T06:55:36;4.70;;;3.30;;
59872;SDS011;50750;51.636;4.948;2023-11-21T06:58:03;6.80;;;4.10;;
59872;SDS011;50750;51.636;4.948;2023-11-21T07:00:31;5.80;;;3.60;;
59872;SDS011;50750;51.636;4.948;2023-11-21T07:02:57;7.00;;;3.60;;
59872;SDS011;50750;51.636;4.948;2023-11-21T07:05:24;5.30;;;3.40;;
59872;SDS011;50750;51.636;4.948;2023-11-21T07:07:50;5.30;;;3.40;;
59872;SDS011;50750;51.636;4.948;2023-11-21T07:10:17;7.60;;;3.80;;
59872;SDS011;50750;51.636;4.948;2023-11-21T07:12:43;7.00;;;3.40;;
59872;SDS011;50750;51.636;4.948;2023-11-21T07:15:09;4.80;;;3.20;;
59872;SDS011;50750;51.636;4.948;2023-11-21T07:17:36;5.00;;;3.10;;
59872;SDS011;50750;51.636;4.948;2023-11-21T07:20:03;5.30;;;3.30;;
59872;SDS011;50750;51.636;4.948;2023-11-21T07:22:31;5.20;;;2.70;;
59872;SDS011;50750;51.636;4.948;2023-11-21T07:24:58;4.40;;;2.70;;
59872;SDS011;50750;51.636;4.948;2023-11-21T07:27:24;4.50;;;3.00;;
59872;SDS011;50750;51.636;4.948;2023-11-21T07:29:50;6.00;;;3.40;;
59872;SDS011;50750;51.636;4.948;2023-11-21T07:32:17;5.30;;;3.20;;
59872;SDS011;50750;51.636;4.948;2023-11-21T07:34:43;5.10;;;3.30;;
59872;SDS011;50750;51.636;4.948;2023-11-21T07:37:10;4.60;;;2.90;;
59872;SDS011;50750;51.636;4.948;2023-11-21T07:39:36;4.80;;;2.70;;
59872;SDS011;50750;51.636;4.948;2023-11-21T07:42:03;6.30;;;2.80;;
59872;SDS011;50750;51.636;4.948;2023-11-21T07:44:30;4.60;;;2.70;;
59872;SDS011;50750;51.636;4.948;2023-11-21T07:46:57;4.50;;;2.90;;
59872;SDS011;50750;51.636;4.948;2023-11-21T07:49:24;4.60;;;2.70;;
59872;SDS011;50750;51.636;4.948;2023-11-21T07:51:52;4.00;;;2.60;;
59872;SDS011;50750;51.636;4.948;2023-11-21T07:54:19;4.00;;;2.40;;
59872;SDS011;50750;51.636;4.948;2023-11-21T07:56:47;4.40;;;2.50;;
59872;SDS011;50750;51.636;4.948;2023-11-21T07:59:13;4.20;;;2.70;;
59872;SDS011;50750;51.636;4.948;2023-11-21T08:01:40;4.50;;;2.50;;
59872;SDS011;50750;51.636;4.948;2023-11-21T08:04:06;4.10;;;2.60;;
59872;SDS011;50750;51.636;4.948;2023-11-21T08:06:34;4.20;;;2.60;;
59872;SDS011;50750;51.636;4.948;2023-11-21T08:09:01;4.70;;;2.90;;
59872;SDS011;50750;51.636;4.948;2023-11-21T08:11:27;4.00;;;2.50;;
59872;SDS011;50750;51.636;4.948;2023-11-21T08:13:55;4.10;;;2.40;;
59872;SDS011;50750;51.636;4.948;2023-11-21T08:16:22;4.10;;;2.60;;
59872;SDS011;50750;51.636;4.948;2023-11-21T08:18:50;3.80;;;2.40;;
59872;SDS011;50750;51.636;4.948;2023-11-21T08:21:17;3.90;;;2.30;;
59872;SDS011;50750;51.636;4.948;2023-11-21T08:23:43;4.30;;;2.40;;
59872;SDS011;50750;51.636;4.948;2023-11-21T08:26:09;3.50;;;2.20;;
59872;SDS011;50750;51.636;4.948;2023-11-21T08:28:36;2.90;;;2.00;;
59872;SDS011;50750;51.636;4.948;2023-11-21T08:31:02;3.90;;;2.40;;
59872;SDS011;50750;51.636;4.948;2023-11-21T08:33:30;4.00;;;2.60;;
59872;SDS011;50750;51.636;4.948;2023-11-21T08:35:57;4.80;;;2.50;;
59872;SDS011;50750;51.636;4.948;2023-11-21T08:38:23;4.50;;;2.30;;
59872;SDS011;50750;51.636;4.948;2023-11-21T08:40:50;4.40;;;2.70;;
59872;SDS011;50750;51.636;4.948;2023-11-21T08:43:16;4.10;;;2.30;;
59872;SDS011;50750;51.636;4.948;2023-11-21T08:45:46;3.70;;;2.60;;
59872;SDS011;50750;51.636;4.948;2023-11-21T08:48:12;4.10;;;2.00;;
59872;SDS011;50750;51.636;4.948;2023-11-21T08:50:38;5.10;;;2.50;;
59872;SDS011;50750;51.636;4.948;2023-11-21T08:53:05;4.70;;;2.30;;
59872;SDS011;50750;51.636;4.948;2023-11-21T08:55:32;3.90;;;2.50;;
59872;SDS011;50750;51.636;4.948;2023-11-21T08:58:03;4.20;;;2.40;;
59872;SDS011;50750;51.636;4.948;2023-11-21T09:00:31;4.00;;;2.30;;
59872;SDS011;50750;51.636;4.948;2023-11-21T09:03:00;3.60;;;2.30;;
59872;SDS011;50750;51.636;4.948;2023-11-21T09:05:28;4.00;;;2.20;;
59872;SDS011;50750;51.636;4.948;2023-11-21T09:07:54;4.20;;;2.20;;
59872;SDS011;50750;51.636;4.948;2023-11-21T09:10:20;5.00;;;2.40;;
59872;SDS011;50750;51.636;4.948;2023-11-21T09:12:47;3.10;;;2.10;;
59872;SDS011;50750;51.636;4.948;2023-11-21T09:15:13;3.50;;;2.10;;
59872;SDS011;50750;51.636;4.948;2023-11-21T09:17:41;3.70;;;2.00;;
59872;SDS011;50750;51.636;4.948;2023-11-21T09:20:09;4.40;;;2.10;;
59872;SDS011;50750;51.636;4.948;2023-11-21T09:22:36;3.60;;;2.20;;
59872;SDS011;50750;51.636;4.948;2023-11-21T09:25:02;3.90;;;2.10;;
59872;SDS011;50750;51.636;4.948;2023-11-21T09:27:33;3.80;;;2.20;;
59872;SDS011;50750;51.636;4.948;2023-11-21T09:29:59;3.70;;;2.00;;
59872;SDS011;50750;51.636;4.948;2023-11-21T09:32:26;3.40;;;1.80;;
59872;SDS011;50750;51.636;4.948;2023-11-21T09:34:52;4.10;;;1.90;;
59872;SDS011;50750;51.636;4.948;2023-11-21T09:37:21;3.80;;;2.00;;
59872;SDS011;50750;51.636;4.948;2023-11-21T09:39:47;4.10;;;2.00;;
59872;SDS011;50750;51.636;4.948;2023-11-21T09:42:19;2.90;;;1.60;;
59872;SDS011;50750;51.636;4.948;2023-11-21T09:44:54;3.40;;;1.90;;
59872;SDS011;50750;51.636;4.948;2023-11-21T09:47:35;2.90;;;1.80;;
59872;SDS011;50750;51.636;4.948;2023-11-21T09:50:04;3.50;;;1.80;;
59872;SDS011;50750;51.636;4.948;2023-11-21T09:52:38;2.90;;;1.80;;
59872;SDS011;50750;51.636;4.948;2023-11-21T09:55:27;3.80;;;1.90;;
59872;SDS011;50750;51.636;4.948;2023-11-21T09:58:02;3.90;;;1.80;;
59872;SDS011;50750;51.636;4.948;2023-11-21T10:00:31;3.50;;;1.80;;
59872;SDS011;50750;51.636;4.948;2023-11-21T10:02:59;2.60;;;1.60;;
59872;SDS011;50750;51.636;4.948;2023-11-21T10:05:26;3.20;;;1.80;;
59872;SDS011;50750;51.636;4.948;2023-11-21T10:07:52;3.20;;;1.60;;
59872;SDS011;50750;51.636;4.948;2023-11-21T10:10:23;2.80;;;1.50;;
59872;SDS011;50750;51.636;4.948;2023-11-21T10:12:53;2.90;;;1.70;;
59872;SDS011;50750;51.636;4.948;2023-11-21T10:15:23;3.40;;;1.70;;
59872;SDS011;50750;51.636;4.948;2023-11-21T10:17:52;3.00;;;1.40;;
59872;SDS011;50750;51.636;4.948;2023-11-21T10:20:20;3.20;;;1.70;;
59872;SDS011;50750;51.636;4.948;2023-11-21T10:22:50;2.90;;;1.90;;
59872;SDS011;50750;51.636;4.948;2023-11-21T10:25:17;2.70;;;1.60;;
59872;SDS011;50750;51.636;4.948;2023-11-21T10:27:47;3.30;;;1.70;;
59872;SDS011;50750;51.636;4.948;2023-11-21T10:30:17;3.50;;;1.70;;
59872;SDS011;50750;51.636;4.948;2023-11-21T10:32:44;3.40;;;1.70;;
59872;SDS011;50750;51.636;4.948;2023-11-21T10:35:11;2.10;;;1.40;;
59872;SDS011;50750;51.636;4.948;2023-11-21T10:37:38;2.30;;;1.60;;
59872;SDS011;50750;51.636;4.948;2023-11-21T10:40:09;2.90;;;1.40;;
59872;SDS011;50750;51.636;4.948;2023-11-21T10:42:39;2.60;;;1.40;;
59872;SDS011;50750;51.636;4.948;2023-11-21T10:45:08;3.00;;;1.60;;
59872;SDS011;50750;51.636;4.948;2023-11-21T10:47:41;2.60;;;1.30;;
59872;SDS011;50750;51.636;4.948;2023-11-21T10:50:08;2.50;;;1.40;;
59872;SDS011;50750;51.636;4.948;2023-11-21T10:52:37;2.10;;;1.40;;
59872;SDS011;50750;51.636;4.948;2023-11-21T10:55:15;2.40;;;1.50;;
59872;SDS011;50750;51.636;4.948;2023-11-21T10:57:43;2.30;;;1.40;;
59872;SDS011;50750;51.636;4.948;2023-11-21T11:00:12;2.60;;;1.40;;
59872;SDS011;50750;51.636;4.948;2023-11-21T11:02:40;2.80;;;1.40;;
59872;SDS011;50750;51.636;4.948;2023-11-21T11:05:06;2.20;;;1.30;;
59872;SDS011;50750;51.636;4.948;2023-11-21T11:07:37;2.10;;;1.30;;
59872;SDS011;50750;51.636;4.948;2023-11-21T11:10:09;2.40;;;1.40;;
59872;SDS011;50750;51.636;4.948;2023-11-21T11:12:41;2.40;;;1.30;;
59872;SDS011;50750;51.636;4.948;2023-11-21T11:15:08;2.10;;;1.20;;
59872;SDS011;50750;51.636;4.948;2023-11-21T11:17:37;2.90;;;1.60;;
59872;SDS011;50750;51.636;4.948;2023-11-21T11:20:05;1.80;;;1.20;;
59872;SDS011;50750;51.636;4.948;2023-11-21T11:25:30;2.20;;;1.30;;
59872;SDS011;50750;51.636;4.948;2023-11-21T11:33:41;2.40;;;1.10;;
59872;SDS011;50750;51.636;4.948;2023-11-21T11:39:00;2.30;;;1.30;;
59872;SDS011;50750;51.636;4.948;2023-11-21T11:41:30;2.30;;;1.20;;
59872;SDS011;50750;51.636;4.948;2023-11-21T11:44:00;3.00;;;1.30;;
59872;SDS011;50750;51.636;4.948;2023-11-21T11:46:40;2.70;;;1.30;;
59872;SDS011;50750;51.636;4.948;2023-11-21T11:49:08;2.60;;;1.50;;
59872;SDS011;50750;51.636;4.948;2023-11-21T11:51:35;2.90;;;1.50;;
59872;SDS011;50750;51.636;4.948;2023-11-21T11:54:05;2.40;;;1.30;;
59872;SDS011;50750;51.636;4.948;2023-11-21T11:56:33;2.90;;;1.20;;
59872;SDS011;50750;51.636;4.948;2023-11-21T11:59:02;2.50;;;1.40;;
59872;SDS011;50750;51.636;4.948;2023-11-21T12:01:31;2.40;;;1.40;;
59872;SDS011;50750;51.636;4.948;2023-11-21T12:06:40;2.60;;;1.40;;
59872;SDS011;50750;51.636;4.948;2023-11-21T12:09:12;2.20;;;1.30;;
59872;SDS011;50750;51.636;4.948;2023-11-21T12:14:16;2.30;;;1.20;;
59872;SDS011;50750;51.636;4.948;2023-11-21T12:16:44;1.80;;;1.10;;
59872;SDS011;50750;51.636;4.948;2023-11-21T12:19:11;2.00;;;1.10;;
59872;SDS011;50750;51.636;4.948;2023-11-21T12:21:38;2.30;;;1.30;;
59872;SDS011;50750;51.636;4.948;2023-11-21T12:24:07;2.10;;;1.20;;
59872;SDS011;50750;51.636;4.948;2023-11-21T12:26:35;1.90;;;1.20;;
59872;SDS011;50750;51.636;4.948;2023-11-21T12:29:02;2.90;;;1.30;;
59872;SDS011;50750;51.636;4.948;2023-11-21T12:31:30;2.60;;;1.40;;
59872;SDS011;50750;51.636;4.948;2023-11-21T12:33:57;2.00;;;1.30;;
59872;SDS011;50750;51.636;4.948;2023-11-21T12:36:24;2.30;;;1.10;;
59872;SDS011;50750;51.636;4.948;2023-11-21T12:38:51;2.30;;;1.30;;
59872;SDS011;50750;51.636;4.948;2023-11-21T12:41:18;2.50;;;1.40;;
59872;SDS011;50750;51.636;4.948;2023-11-21T12:43:44;2.60;;;1.30;;
59872;SDS011;50750;51.636;4.948;2023-11-21T12:46:11;2.30;;;1.20;;
59872;SDS011;50750;51.636;4.948;2023-11-21T12:48:37;2.40;;;1.40;;
59872;SDS011;50750;51.636;4.948;2023-11-21T12:51:10;2.30;;;1.20;;
59872;SDS011;50750;51.636;4.948;2023-11-21T12:53:38;2.20;;;1.20;;
59872;SDS011;50750;51.636;4.948;2023-11-21T12:56:11;2.10;;;1.30;;
59872;SDS011;50750;51.636;4.948;2023-11-21T12:58:38;2.60;;;1.30;;
59872;SDS011;50750;51.636;4.948;2023-11-21T13:01:08;2.00;;;1.20;;
59872;SDS011;50750;51.636;4.948;2023-11-21T13:03:47;2.60;;;1.40;;
59872;SDS011;50750;51.636;4.948;2023-11-21T13:06:17;2.10;;;1.10;;
59872;SDS011;50750;51.636;4.948;2023-11-21T13:08:45;2.50;;;1.40;;
59872;SDS011;50750;51.636;4.948;2023-11-21T13:11:12;2.50;;;1.40;;
59872;SDS011;50750;51.636;4.948;2023-11-21T13:13:40;2.40;;;1.40;;
59872;SDS011;50750;51.636;4.948;2023-11-21T13:16:11;2.80;;;1.30;;
59872;SDS011;50750;51.636;4.948;2023-11-21T13:18:39;2.30;;;1.30;;
59872;SDS011;50750;51.636;4.948;2023-11-21T13:21:08;2.50;;;1.30;;
59872;SDS011;50750;51.636;4.948;2023-11-21T13:23:40;3.60;;;1.40;;
59872;SDS011;50750;51.636;4.948;2023-11-21T13:26:08;2.30;;;1.40;;
59872;SDS011;50750;51.636;4.948;2023-11-21T13:28:36;2.40;;;1.50;;
59872;SDS011;50750;51.636;4.948;2023-11-21T13:31:03;3.20;;;1.40;;
59872;SDS011;50750;51.636;4.948;2023-11-21T13:33:47;2.60;;;1.20;;
59872;SDS011;50750;51.636;4.948;2023-11-21T13:36:24;2.70;;;1.50;;
59872;SDS011;50750;51.636;4.948;2023-11-21T13:38:51;2.50;;;1.50;;
59872;SDS011;50750;51.636;4.948;2023-11-21T13:41:21;2.50;;;1.40;;
59872;SDS011;50750;51.636;4.948;2023-11-21T13:43:54;2.90;;;1.60;;
59872;SDS011;50750;51.636;4.948;2023-11-21T13:46:29;2.80;;;1.60;;
59872;SDS011;50750;51.636;4.948;2023-11-21T13:49:01;2.40;;;1.40;;
59872;SDS011;50750;51.636;4.948;2023-11-21T13:51:27;3.30;;;1.60;;
59872;SDS011;50750;51.636;4.948;2023-11-21T13:54:03;3.10;;;1.60;;
59872;SDS011;50750;51.636;4.948;2023-11-21T13:56:35;3.00;;;1.60;;
59872;SDS011;50750;51.636;4.948;2023-11-21T13:59:03;3.00;;;1.60;;
59872;SDS011;50750;51.636;4.948;2023-11-21T14:01:42;2.90;;;1.60;;
59872;SDS011;50750;51.636;4.948;2023-11-21T14:04:26;2.80;;;1.60;;
59872;SDS011;50750;51.636;4.948;2023-11-21T14:06:56;2.50;;;1.30;;
59872;SDS011;50750;51.636;4.948;2023-11-21T14:09:23;3.00;;;1.60;;
59872;SDS011;50750;51.636;4.948;2023-11-21T14:11:55;3.00;;;1.40;;
59872;SDS011;50750;51.636;4.948;2023-11-21T14:14:24;2.40;;;1.60;;
59872;SDS011;50750;51.636;4.948;2023-11-21T14:16:52;3.00;;;1.50;;
59872;SDS011;50750;51.636;4.948;2023-11-21T14:19:18;3.30;;;1.70;;
59872;SDS011;50750;51.636;4.948;2023-11-21T14:21:45;2.70;;;1.60;;
59872;SDS011;50750;51.636;4.948;2023-11-21T14:24:12;2.70;;;1.70;;
59872;SDS011;50750;51.636;4.948;2023-11-21T14:26:40;3.20;;;1.60;;
59872;SDS011;50750;51.636;4.948;2023-11-21T14:29:07;2.80;;;1.50;;
59872;SDS011;50750;51.636;4.948;2023-11-21T14:31:36;2.90;;;1.60;;
59872;SDS011;50750;51.636;4.948;2023-11-21T14:34:02;3.10;;;1.70;;
59872;SDS011;50750;51.636;4.948;2023-11-21T14:36:29;2.70;;;1.60;;
59872;SDS011;50750;51.636;4.948;2023-11-21T14:38:55;3.00;;;1.60;;
59872;SDS011;50750;51.636;4.948;2023-11-21T14:41:21;3.10;;;1.90;;
59872;SDS011;50750;51.636;4.948;2023-11-21T14:43:48;3.40;;;1.80;;
59872;SDS011;50750;51.636;4.948;2023-11-21T14:46:16;2.70;;;1.60;;
59872;SDS011;50750;51.636;4.948;2023-11-21T14:48:45;3.40;;;1.90;;
59872;SDS011;50750;51.636;4.948;2023-11-21T14:51:25;3.20;;;2.00;;
59872;SDS011;50750;51.636;4.948;2023-11-21T14:53:53;4.00;;;2.00;;
59872;SDS011;50750;51.636;4.948;2023-11-21T14:56:20;3.40;;;2.10;;
59872;SDS011;50750;51.636;4.948;2023-11-21T14:58:53;3.80;;;2.00;;
59872;SDS011;50750;51.636;4.948;2023-11-21T15:01:22;3.00;;;1.90;;
59872;SDS011;50750;51.636;4.948;2023-11-21T15:04:08;3.40;;;1.80;;
59872;SDS011;50750;51.636;4.948;2023-11-21T15:06:41;3.10;;;1.70;;
59872;SDS011;50750;51.636;4.948;2023-11-21T15:09:09;3.10;;;1.90;;
59872;SDS011;50750;51.636;4.948;2023-11-21T15:11:35;3.70;;;2.00;;